sensor_id;sensor_type;location;lat;lon;timestamp;temperature;humidity
11744;DHT22;5929;51.906;7.674;2023-04-24T00:02:20;11.30;99.90
11744;DHT22;5929;51.906;7.674;2023-04-24T00:04:48;11.30;99.90
11744;DHT22;5929;51.906;7.674;2023-04-24T00:07:15;11.30;99.90
11744;DHT22;5929;51.906;7.674;2023-04-24T00:09:42;11.30;99.90
11744;DHT22;5929;51.906;7.674;2023-04-24T00:12:09;11.40;99.90
11744;DHT22;5929;51.906;7.674;2023-04-24T00:14:36;11.40;99.90
11744;DHT22;5929;51.906;7.674;2023-04-24T00:17:05;11.40;99.90
11744;DHT22;5929;51.906;7.674;2023-04-24T00:19:32;11.40;99.90
11744;DHT22;5929;51.906;7.674;2023-04-24T00:22:00;11.40;99.90
11744;DHT22;5929;51.906;7.674;2023-04-24T00:24:27;11.40;99.90
11744;DHT22;5929;51.906;7.674;2023-04-24T00:26:56;11.40;99.90
11744;DHT22;5929;51.906;7.674;2023-04-24T00:29:22;11.30;99.90
11744;DHT22;5929;51.906;7.674;2023-04-24T00:31:49;11.30;99.90
11744;DHT22;5929;51.906;7.674;2023-04-24T00:34:16;11.30;99.90
11744;DHT22;5929;51.906;7.674;2023-04-24T00:36:43;11.40;99.90
11744;DHT22;5929;51.906;7.674;2023-04-24T00:39:12;11.40;99.90
11744;DHT22;5929;51.906;7.674;2023-04-24T00:41:38;11.40;99.90
11744;DHT22;5929;51.906;7.674;2023-04-24T00:44:05;11.40;99.90
11744;DHT22;5929;51.906;7.674;2023-04-24T00:46:32;11.30;99.90
11744;DHT22;5929;51.906;7.674;2023-04-24T00:48:59;11.30;99.90
11744;DHT22;5929;51.906;7.674;2023-04-24T00:51:26;11.30;99.90
11744;DHT22;5929;51.906;7.674;2023-04-24T00:53:53;11.20;99.90
11744;DHT22;5929;51.906;7.674;2023-04-24T00:56:21;11.20;99.90
11744;DHT22;5929;51.906;7.674;2023-04-24T00:58:49;11.10;99.90
11744;DHT22;5929;51.906;7.674;2023-04-24T01:01:16;11.10;99.90
11744;DHT22;5929;51.906;7.674;2023-04-24T01:03:43;11.00;99.90
11744;DHT22;5929;51.906;7.674;2023-04-24T01:06:10;11.00;99.90
11744;DHT22;5929;51.906;7.674;2023-04-24T01:08:38;11.00;99.90
11744;DHT22;5929;51.906;7.674;2023-04-24T01:11:06;11.00;99.90
11744;DHT22;5929;51.906;7.674;2023-04-24T01:13:34;11.00;99.90
11744;DHT22;5929;51.906;7.674;2023-04-24T01:16:01;11.10;99.90
11744;DHT22;5929;51.906;7.674;2023-04-24T01:18:28;11.10;99.90
11744;DHT22;5929;51.906;7.674;2023-04-24T01:20:58;11.10;99.90
11744;DHT22;5929;51.906;7.674;2023-04-24T01:23:26;11.10;99.90
11744;DHT22;5929;51.906;7.674;2023-04-24T01:25:54;11.10;99.90
11744;DHT22;5929;51.906;7.674;2023-04-24T01:28:23;11.10;99.90
11744;DHT22;5929;51.906;7.674;2023-04-24T01:30:50;11.20;99.90
11744;DHT22;5929;51.906;7.674;2023-04-24T01:33:17;11.20;99.90
11744;DHT22;5929;51.906;7.674;2023-04-24T01:35:44;11.10;99.90
11744;DHT22;5929;51.906;7.674;2023-04-24T01:38:11;11.20;99.90
11744;DHT22;5929;51.906;7.674;2023-04-24T01:40:39;11.20;99.90
11744;DHT22;5929;51.906;7.674;2023-04-24T01:43:06;11.20;99.90
11744;DHT22;5929;51.906;7.674;2023-04-24T01:45:33;11.20;99.90
11744;DHT22;5929;51.906;7.674;2023-04-24T01:48:00;11.20;99.90
11744;DHT22;5929;51.906;7.674;2023-04-24T01:50:29;11.20;99.90
11744;DHT22;5929;51.906;7.674;2023-04-24T01:52:56;11.20;99.90
11744;DHT22;5929;51.906;7.674;2023-04-24T01:55:23;11.20;99.90
11744;DHT22;5929;51.906;7.674;2023-04-24T01:57:52;11.10;99.90
11744;DHT22;5929;51.906;7.674;2023-04-24T02:00:20;11.20;99.90
11744;DHT22;5929;51.906;7.674;2023-04-24T02:02:47;11.10;99.90
11744;DHT22;5929;51.906;7.674;2023-04-24T02:05:14;11.10;99.90
11744;DHT22;5929;51.906;7.674;2023-04-24T02:07:41;11.10;99.90
11744;DHT22;5929;51.906;7.674;2023-04-24T02:10:09;11.00;99.90
11744;DHT22;5929;51.906;7.674;2023-04-24T02:12:36;11.00;99.90
11744;DHT22;5929;51.906;7.674;2023-04-24T02:15:05;11.00;99.90
11744;DHT22;5929;51.906;7.674;2023-04-24T02:17:32;10.90;99.90
11744;DHT22;5929;51.906;7.674;2023-04-24T02:19:58;10.80;99.90
11744;DHT22;5929;51.906;7.674;2023-04-24T02:22:25;10.70;99.90
11744;DHT22;5929;51.906;7.674;2023-04-24T02:24:52;10.70;99.90
11744;DHT22;5929;51.906;7.674;2023-04-24T02:27:19;10.60;99.90
11744;DHT22;5929;51.906;7.674;2023-04-24T02:29:46;10.50;99.90
11744;DHT22;5929;51.906;7.674;2023-04-24T02:32:14;10.50;99.90
11744;DHT22;5929;51.906;7.674;2023-04-24T02:34:41;10.40;99.90
11744;DHT22;5929;51.906;7.674;2023-04-24T02:37:08;10.30;99.90
11744;DHT22;5929;51.906;7.674;2023-04-24T02:39:35;10.20;99.90
11744;DHT22;5929;51.906;7.674;2023-04-24T02:42:02;10.20;99.90
11744;DHT22;5929;51.906;7.674;2023-04-24T02:44:28;10.20;99.90
11744;DHT22;5929;51.906;7.674;2023-04-24T02:46:55;10.10;99.90
11744;DHT22;5929;51.906;7.674;2023-04-24T02:49:23;10.10;99.90
11744;DHT22;5929;51.906;7.674;2023-04-24T02:51:51;10.10;99.90
11744;DHT22;5929;51.906;7.674;2023-04-24T02:54:18;10.00;99.90
11744;DHT22;5929;51.906;7.674;2023-04-24T02:56:45;10.00;99.90
11744;DHT22;5929;51.906;7.674;2023-04-24T02:59:11;9.90;99.90
11744;DHT22;5929;51.906;7.674;2023-04-24T03:01:38;10.00;99.90
11744;DHT22;5929;51.906;7.674;2023-04-24T03:04:05;9.90;99.90
11744;DHT22;5929;51.906;7.674;2023-04-24T03:06:33;9.90;99.90
11744;DHT22;5929;51.906;7.674;2023-04-24T03:09:01;9.90;99.90
11744;DHT22;5929;51.906;7.674;2023-04-24T03:11:28;10.00;99.90
11744;DHT22;5929;51.906;7.674;2023-04-24T03:13:55;9.90;99.90
11744;DHT22;5929;51.906;7.674;2023-04-24T03:16:22;10.00;99.90
11744;DHT22;5929;51.906;7.674;2023-04-24T03:18:49;9.90;99.90
11744;DHT22;5929;51.906;7.674;2023-04-24T03:21:16;9.90;99.90
11744;DHT22;5929;51.906;7.674;2023-04-24T03:23:44;9.90;99.90
11744;DHT22;5929;51.906;7.674;2023-04-24T03:26:10;9.90;99.90
11744;DHT22;5929;51.906;7.674;2023-04-24T03:28:37;9.90;99.90
11744;DHT22;5929;51.906;7.674;2023-04-24T03:31:04;9.90;99.90
11744;DHT22;5929;51.906;7.674;2023-04-24T03:33:31;9.90;99.90
11744;DHT22;5929;51.906;7.674;2023-04-24T03:35:58;9.80;99.90
11744;DHT22;5929;51.906;7.674;2023-04-24T03:38:24;9.80;99.90
11744;DHT22;5929;51.906;7.674;2023-04-24T03:40:53;9.80;99.90
11744;DHT22;5929;51.906;7.674;2023-04-24T03:43:19;9.70;99.90
11744;DHT22;5929;51.906;7.674;2023-04-24T03:45:46;9.80;99.90
11744;DHT22;5929;51.906;7.674;2023-04-24T03:48:13;9.80;99.90
11744;DHT22;5929;51.906;7.674;2023-04-24T03:50:40;9.80;99.90
11744;DHT22;5929;51.906;7.674;2023-04-24T03:53:07;9.80;99.90
11744;DHT22;5929;51.906;7.674;2023-04-24T03:55:33;9.80;99.90
11744;DHT22;5929;51.906;7.674;2023-04-24T03:58:02;9.70;99.90
11744;DHT22;5929;51.906;7.674;2023-04-24T04:00:28;9.70;99.90
11744;DHT22;5929;51.906;7.674;2023-04-24T04:03:00;9.70;99.90
11744;DHT22;5929;51.906;7.674;2023-04-24T04:05:27;9.70;99.90
11744;DHT22;5929;51.906;7.674;2023-04-24T04:07:54;9.70;99.90
11744;DHT22;5929;51.906;7.674;2023-04-24T04:10:21;9.60;99.90
11744;DHT22;5929;51.906;7.674;2023-04-24T04:12:48;9.60;99.90
11744;DHT22;5929;51.906;7.674;2023-04-24T04:15:16;9.60;99.90
11744;DHT22;5929;51.906;7.674;2023-04-24T04:17:43;9.70;99.90
11744;DHT22;5929;51.906;7.674;2023-04-24T04:20:13;9.70;99.90
11744;DHT22;5929;51.906;7.674;2023-04-24T04:22:40;9.70;99.90
11744;DHT22;5929;51.906;7.674;2023-04-24T04:25:07;9.70;99.90
11744;DHT22;5929;51.906;7.674;2023-04-24T04:27:34;9.70;99.90
11744;DHT22;5929;51.906;7.674;2023-04-24T04:30:02;9.70;99.90
11744;DHT22;5929;51.906;7.674;2023-04-24T04:32:31;9.70;99.90
11744;DHT22;5929;51.906;7.674;2023-04-24T04:34:58;9.70;99.90
11744;DHT22;5929;51.906;7.674;2023-04-24T04:37:28;9.70;99.90
11744;DHT22;5929;51.906;7.674;2023-04-24T04:39:55;9.70;99.90
11744;DHT22;5929;51.906;7.674;2023-04-24T04:42:23;9.80;99.90
11744;DHT22;5929;51.906;7.674;2023-04-24T04:44:50;9.80;99.90
11744;DHT22;5929;51.906;7.674;2023-04-24T04:47:17;9.80;99.90
11744;DHT22;5929;51.906;7.674;2023-04-24T04:49:45;9.90;99.90
11744;DHT22;5929;51.906;7.674;2023-04-24T04:52:12;9.90;99.90
11744;DHT22;5929;51.906;7.674;2023-04-24T04:54:39;9.90;99.90
11744;DHT22;5929;51.906;7.674;2023-04-24T04:57:06;9.90;99.90
11744;DHT22;5929;51.906;7.674;2023-04-24T04:59:33;9.90;99.90
11744;DHT22;5929;51.906;7.674;2023-04-24T05:02:00;9.90;99.90
11744;DHT22;5929;51.906;7.674;2023-04-24T05:04:27;9.90;99.90
11744;DHT22;5929;51.906;7.674;2023-04-24T05:06:55;9.90;99.90
11744;DHT22;5929;51.906;7.674;2023-04-24T05:09:24;9.90;99.90
11744;DHT22;5929;51.906;7.674;2023-04-24T05:11:55;9.90;99.90
11744;DHT22;5929;51.906;7.674;2023-04-24T05:14:22;10.00;99.90
11744;DHT22;5929;51.906;7.674;2023-04-24T05:16:49;10.00;99.90
11744;DHT22;5929;51.906;7.674;2023-04-24T05:19:16;10.00;99.90
11744;DHT22;5929;51.906;7.674;2023-04-24T05:21:43;10.00;99.90
11744;DHT22;5929;51.906;7.674;2023-04-24T05:24:11;10.00;99.90
11744;DHT22;5929;51.906;7.674;2023-04-24T05:26:38;10.00;99.90
11744;DHT22;5929;51.906;7.674;2023-04-24T05:29:05;10.10;99.90
11744;DHT22;5929;51.906;7.674;2023-04-24T05:31:32;10.00;99.90
11744;DHT22;5929;51.906;7.674;2023-04-24T05:33:59;10.00;99.90
11744;DHT22;5929;51.906;7.674;2023-04-24T05:36:26;10.00;99.90
11744;DHT22;5929;51.906;7.674;2023-04-24T05:38:53;10.00;99.90
11744;DHT22;5929;51.906;7.674;2023-04-24T05:41:22;10.00;99.90
11744;DHT22;5929;51.906;7.674;2023-04-24T05:43:49;10.00;99.90
11744;DHT22;5929;51.906;7.674;2023-04-24T05:46:16;10.00;99.90
11744;DHT22;5929;51.906;7.674;2023-04-24T05:48:43;10.00;99.90
11744;DHT22;5929;51.906;7.674;2023-04-24T05:51:10;10.00;99.90
11744;DHT22;5929;51.906;7.674;2023-04-24T05:53:36;10.00;99.90
11744;DHT22;5929;51.906;7.674;2023-04-24T05:56:03;10.00;99.90
11744;DHT22;5929;51.906;7.674;2023-04-24T05:58:32;10.00;99.90
11744;DHT22;5929;51.906;7.674;2023-04-24T06:00:59;10.10;99.90
11744;DHT22;5929;51.906;7.674;2023-04-24T06:03:26;10.00;99.90
11744;DHT22;5929;51.906;7.674;2023-04-24T06:05:54;10.00;99.90
11744;DHT22;5929;51.906;7.674;2023-04-24T06:08:21;10.00;99.90
11744;DHT22;5929;51.906;7.674;2023-04-24T06:10:47;10.00;99.90
11744;DHT22;5929;51.906;7.674;2023-04-24T06:13:15;10.00;99.90
11744;DHT22;5929;51.906;7.674;2023-04-24T06:15:43;10.00;99.90
11744;DHT22;5929;51.906;7.674;2023-04-24T06:18:10;10.00;99.90
11744;DHT22;5929;51.906;7.674;2023-04-24T06:20:38;10.00;99.90
11744;DHT22;5929;51.906;7.674;2023-04-24T06:23:05;10.10;99.90
11744;DHT22;5929;51.906;7.674;2023-04-24T06:25:31;10.00;99.90
11744;DHT22;5929;51.906;7.674;2023-04-24T06:28:01;10.10;99.90
11744;DHT22;5929;51.906;7.674;2023-04-24T06:30:28;10.10;99.90
11744;DHT22;5929;51.906;7.674;2023-04-24T06:32:56;10.10;99.90
11744;DHT22;5929;51.906;7.674;2023-04-24T06:35:23;10.10;99.90
11744;DHT22;5929;51.906;7.674;2023-04-24T06:37:50;10.10;99.90
11744;DHT22;5929;51.906;7.674;2023-04-24T06:40:17;10.10;99.90
11744;DHT22;5929;51.906;7.674;2023-04-24T06:42:45;10.00;99.90
11744;DHT22;5929;51.906;7.674;2023-04-24T06:45:11;10.00;99.90
11744;DHT22;5929;51.906;7.674;2023-04-24T06:47:38;10.10;99.90
11744;DHT22;5929;51.906;7.674;2023-04-24T06:50:09;10.10;99.90
11744;DHT22;5929;51.906;7.674;2023-04-24T06:52:36;10.10;99.90
11744;DHT22;5929;51.906;7.674;2023-04-24T06:55:04;10.10;99.90
11744;DHT22;5929;51.906;7.674;2023-04-24T06:57:31;10.10;99.90
11744;DHT22;5929;51.906;7.674;2023-04-24T06:59:58;10.00;99.90
11744;DHT22;5929;51.906;7.674;2023-04-24T07:02:25;10.00;99.90
11744;DHT22;5929;51.906;7.674;2023-04-24T07:04:54;9.90;99.90
11744;DHT22;5929;51.906;7.674;2023-04-24T07:07:23;9.90;99.90
11744;DHT22;5929;51.906;7.674;2023-04-24T07:09:50;9.90;99.90
11744;DHT22;5929;51.906;7.674;2023-04-24T07:12:17;9.90;99.90
11744;DHT22;5929;51.906;7.674;2023-04-24T07:14:50;9.90;99.90
11744;DHT22;5929;51.906;7.674;2023-04-24T07:17:16;9.90;99.90
11744;DHT22;5929;51.906;7.674;2023-04-24T07:19:43;9.90;99.90
11744;DHT22;5929;51.906;7.674;2023-04-24T07:22:10;9.90;99.90
11744;DHT22;5929;51.906;7.674;2023-04-24T07:24:43;9.90;99.90
11744;DHT22;5929;51.906;7.674;2023-04-24T07:27:10;9.90;99.90
11744;DHT22;5929;51.906;7.674;2023-04-24T07:29:37;9.90;99.90
11744;DHT22;5929;51.906;7.674;2023-04-24T07:32:05;10.00;99.90
11744;DHT22;5929;51.906;7.674;2023-04-24T07:34:33;10.10;99.90
11744;DHT22;5929;51.906;7.674;2023-04-24T07:37:00;10.20;99.90
11744;DHT22;5929;51.906;7.674;2023-04-24T07:39:27;10.20;99.90
11744;DHT22;5929;51.906;7.674;2023-04-24T07:41:56;10.30;99.90
11744;DHT22;5929;51.906;7.674;2023-04-24T07:44:24;10.30;99.90
11744;DHT22;5929;51.906;7.674;2023-04-24T07:46:51;10.20;99.90
11744;DHT22;5929;51.906;7.674;2023-04-24T07:49:17;10.10;99.90
11744;DHT22;5929;51.906;7.674;2023-04-24T07:51:45;10.10;99.90
11744;DHT22;5929;51.906;7.674;2023-04-24T07:54:12;10.00;99.90
11744;DHT22;5929;51.906;7.674;2023-04-24T07:56:39;10.10;99.90
11744;DHT22;5929;51.906;7.674;2023-04-24T07:59:10;10.20;99.90
11744;DHT22;5929;51.906;7.674;2023-04-24T08:01:37;10.10;99.90
11744;DHT22;5929;51.906;7.674;2023-04-24T08:04:04;10.00;99.90
11744;DHT22;5929;51.906;7.674;2023-04-24T08:06:31;10.00;99.90
11744;DHT22;5929;51.906;7.674;2023-04-24T08:08:59;10.00;99.90
11744;DHT22;5929;51.906;7.674;2023-04-24T08:11:26;10.00;99.90
11744;DHT22;5929;51.906;7.674;2023-04-24T08:13:53;9.90;99.90
11744;DHT22;5929;51.906;7.674;2023-04-24T08:16:21;10.00;99.90
11744;DHT22;5929;51.906;7.674;2023-04-24T08:18:49;10.00;99.90
11744;DHT22;5929;51.906;7.674;2023-04-24T08:21:16;10.00;99.90
11744;DHT22;5929;51.906;7.674;2023-04-24T08:23:44;10.10;99.90
11744;DHT22;5929;51.906;7.674;2023-04-24T08:26:13;10.10;99.90
11744;DHT22;5929;51.906;7.674;2023-04-24T08:28:40;10.10;99.90
11744;DHT22;5929;51.906;7.674;2023-04-24T08:31:07;10.00;99.90
11744;DHT22;5929;51.906;7.674;2023-04-24T08:33:35;10.00;99.90
11744;DHT22;5929;51.906;7.674;2023-04-24T08:36:02;10.00;99.90
11744;DHT22;5929;51.906;7.674;2023-04-24T08:38:30;9.90;99.90
11744;DHT22;5929;51.906;7.674;2023-04-24T08:40:59;9.90;99.90
11744;DHT22;5929;51.906;7.674;2023-04-24T08:43:27;9.90;99.90
11744;DHT22;5929;51.906;7.674;2023-04-24T08:45:56;9.90;99.90
11744;DHT22;5929;51.906;7.674;2023-04-24T08:48:23;9.80;99.90
11744;DHT22;5929;51.906;7.674;2023-04-24T08:50:51;9.70;99.90
11744;DHT22;5929;51.906;7.674;2023-04-24T08:53:18;9.70;99.90
11744;DHT22;5929;51.906;7.674;2023-04-24T08:55:47;9.60;99.90
11744;DHT22;5929;51.906;7.674;2023-04-24T08:58:15;9.60;99.90
11744;DHT22;5929;51.906;7.674;2023-04-24T09:00:43;9.50;99.90
11744;DHT22;5929;51.906;7.674;2023-04-24T09:03:13;9.50;99.90
11744;DHT22;5929;51.906;7.674;2023-04-24T09:05:42;9.50;99.90
11744;DHT22;5929;51.906;7.674;2023-04-24T09:08:13;9.60;99.90
11744;DHT22;5929;51.906;7.674;2023-04-24T09:10:41;9.60;99.90
11744;DHT22;5929;51.906;7.674;2023-04-24T09:13:10;9.60;99.90
11744;DHT22;5929;51.906;7.674;2023-04-24T09:15:37;9.60;99.90
11744;DHT22;5929;51.906;7.674;2023-04-24T09:18:04;9.70;99.90
11744;DHT22;5929;51.906;7.674;2023-04-24T09:20:31;9.80;99.90
11744;DHT22;5929;51.906;7.674;2023-04-24T09:22:58;10.00;99.90
11744;DHT22;5929;51.906;7.674;2023-04-24T09:25:31;10.00;99.90
11744;DHT22;5929;51.906;7.674;2023-04-24T09:28:01;10.00;99.90
11744;DHT22;5929;51.906;7.674;2023-04-24T09:30:28;10.00;99.90
11744;DHT22;5929;51.906;7.674;2023-04-24T09:33:10;9.90;99.90
11744;DHT22;5929;51.906;7.674;2023-04-24T09:35:41;9.70;99.90
11744;DHT22;5929;51.906;7.674;2023-04-24T09:38:08;9.70;99.90
11744;DHT22;5929;51.906;7.674;2023-04-24T09:40:36;9.60;99.90
11744;DHT22;5929;51.906;7.674;2023-04-24T09:43:03;9.40;99.90
11744;DHT22;5929;51.906;7.674;2023-04-24T09:45:35;9.30;99.90
11744;DHT22;5929;51.906;7.674;2023-04-24T09:48:03;9.20;99.90
11744;DHT22;5929;51.906;7.674;2023-04-24T09:50:32;9.00;99.90
11744;DHT22;5929;51.906;7.674;2023-04-24T09:53:03;9.00;99.90
11744;DHT22;5929;51.906;7.674;2023-04-24T09:55:30;9.00;99.90
11744;DHT22;5929;51.906;7.674;2023-04-24T09:58:00;9.00;99.90
11744;DHT22;5929;51.906;7.674;2023-04-24T10:00:31;9.00;99.90
11744;DHT22;5929;51.906;7.674;2023-04-24T10:02:59;8.90;99.90
11744;DHT22;5929;51.906;7.674;2023-04-24T10:05:28;8.90;99.90
11744;DHT22;5929;51.906;7.674;2023-04-24T10:08:01;9.00;99.90
11744;DHT22;5929;51.906;7.674;2023-04-24T10:10:29;9.00;99.90
11744;DHT22;5929;51.906;7.674;2023-04-24T10:12:59;9.00;99.90
11744;DHT22;5929;51.906;7.674;2023-04-24T10:15:26;9.00;99.90
11744;DHT22;5929;51.906;7.674;2023-04-24T10:17:53;8.90;99.90
11744;DHT22;5929;51.906;7.674;2023-04-24T10:20:24;8.80;99.90
11744;DHT22;5929;51.906;7.674;2023-04-24T10:22:52;8.80;99.90
11744;DHT22;5929;51.906;7.674;2023-04-24T10:25:21;8.80;99.90
11744;DHT22;5929;51.906;7.674;2023-04-24T10:27:49;8.90;99.90
11744;DHT22;5929;51.906;7.674;2023-04-24T10:30:18;8.90;99.90
11744;DHT22;5929;51.906;7.674;2023-04-24T10:32:45;8.90;99.90
11744;DHT22;5929;51.906;7.674;2023-04-24T10:35:13;9.00;99.90
11744;DHT22;5929;51.906;7.674;2023-04-24T10:37:44;9.00;99.90
11744;DHT22;5929;51.906;7.674;2023-04-24T10:40:16;8.90;99.90
11744;DHT22;5929;51.906;7.674;2023-04-24T10:42:47;8.90;99.90
11744;DHT22;5929;51.906;7.674;2023-04-24T10:45:19;8.90;99.90
11744;DHT22;5929;51.906;7.674;2023-04-24T10:47:57;8.70;99.90
11744;DHT22;5929;51.906;7.674;2023-04-24T10:50:26;8.60;99.90
11744;DHT22;5929;51.906;7.674;2023-04-24T10:52:53;8.60;99.90
11744;DHT22;5929;51.906;7.674;2023-04-24T10:55:41;8.60;99.90
11744;DHT22;5929;51.906;7.674;2023-04-24T10:58:09;8.50;99.90
11744;DHT22;5929;51.906;7.674;2023-04-24T11:00:39;8.30;99.90
11744;DHT22;5929;51.906;7.674;2023-04-24T11:03:06;8.30;99.90
11744;DHT22;5929;51.906;7.674;2023-04-24T11:05:50;8.10;99.90
11744;DHT22;5929;51.906;7.674;2023-04-24T11:08:25;8.10;99.90
11744;DHT22;5929;51.906;7.674;2023-04-24T11:10:58;8.10;99.90
11744;DHT22;5929;51.906;7.674;2023-04-24T11:13:27;8.10;99.90
11744;DHT22;5929;51.906;7.674;2023-04-24T11:16:15;8.10;99.90
11744;DHT22;5929;51.906;7.674;2023-04-24T11:18:42;8.10;99.90
11744;DHT22;5929;51.906;7.674;2023-04-24T11:21:12;8.10;99.90
11744;DHT22;5929;51.906;7.674;2023-04-24T11:23:39;8.00;99.90
11744;DHT22;5929;51.906;7.674;2023-04-24T11:26:14;8.10;99.90
11744;DHT22;5929;51.906;7.674;2023-04-24T11:28:47;8.20;99.90
11744;DHT22;5929;51.906;7.674;2023-04-24T11:31:38;8.30;99.90
11744;DHT22;5929;51.906;7.674;2023-04-24T11:34:10;8.40;99.90
11744;DHT22;5929;51.906;7.674;2023-04-24T11:36:38;8.40;99.90
11744;DHT22;5929;51.906;7.674;2023-04-24T11:39:06;8.30;99.90
11744;DHT22;5929;51.906;7.674;2023-04-24T11:41:33;8.30;99.90
11744;DHT22;5929;51.906;7.674;2023-04-24T11:44:01;8.30;99.90
11744;DHT22;5929;51.906;7.674;2023-04-24T11:46:29;8.30;99.90
11744;DHT22;5929;51.906;7.674;2023-04-24T11:48:59;8.30;99.90
11744;DHT22;5929;51.906;7.674;2023-04-24T11:51:27;8.30;99.90
11744;DHT22;5929;51.906;7.674;2023-04-24T11:53:54;8.30;99.90
11744;DHT22;5929;51.906;7.674;2023-04-24T11:56:24;8.20;99.90
11744;DHT22;5929;51.906;7.674;2023-04-24T11:58:52;8.20;99.90
11744;DHT22;5929;51.906;7.674;2023-04-24T12:01:19;8.10;99.90
11744;DHT22;5929;51.906;7.674;2023-04-24T12:03:49;8.10;99.90
11744;DHT22;5929;51.906;7.674;2023-04-24T12:06:17;8.20;99.90
11744;DHT22;5929;51.906;7.674;2023-04-24T12:08:48;8.20;99.90
11744;DHT22;5929;51.906;7.674;2023-04-24T12:11:16;8.20;99.90
11744;DHT22;5929;51.906;7.674;2023-04-24T12:13:46;8.10;99.90
11744;DHT22;5929;51.906;7.674;2023-04-24T12:16:13;8.10;99.90
11744;DHT22;5929;51.906;7.674;2023-04-24T12:18:44;8.20;99.90
11744;DHT22;5929;51.906;7.674;2023-04-24T12:21:15;8.20;99.90
11744;DHT22;5929;51.906;7.674;2023-04-24T12:23:44;8.10;99.90
11744;DHT22;5929;51.906;7.674;2023-04-24T12:26:11;8.10;99.90
11744;DHT22;5929;51.906;7.674;2023-04-24T12:28:39;8.00;99.90
11744;DHT22;5929;51.906;7.674;2023-04-24T12:31:06;8.10;99.90
11744;DHT22;5929;51.906;7.674;2023-04-24T12:33:36;8.20;99.90
11744;DHT22;5929;51.906;7.674;2023-04-24T12:36:04;8.20;99.90
11744;DHT22;5929;51.906;7.674;2023-04-24T12:38:32;8.40;99.90
11744;DHT22;5929;51.906;7.674;2023-04-24T12:41:11;8.50;99.90
11744;DHT22;5929;51.906;7.674;2023-04-24T12:43:51;8.40;99.90
11744;DHT22;5929;51.906;7.674;2023-04-24T12:46:18;8.50;99.90
11744;DHT22;5929;51.906;7.674;2023-04-24T12:48:47;8.50;99.90
11744;DHT22;5929;51.906;7.674;2023-04-24T12:51:14;8.50;99.90
11744;DHT22;5929;51.906;7.674;2023-04-24T12:53:41;8.40;99.90
11744;DHT22;5929;51.906;7.674;2023-04-24T12:56:09;8.50;99.90
11744;DHT22;5929;51.906;7.674;2023-04-24T12:58:36;8.40;99.90
11744;DHT22;5929;51.906;7.674;2023-04-24T13:01:03;8.30;99.90
11744;DHT22;5929;51.906;7.674;2023-04-24T13:03:29;8.30;99.90
11744;DHT22;5929;51.906;7.674;2023-04-24T13:05:56;8.30;99.90
11744;DHT22;5929;51.906;7.674;2023-04-24T13:08:23;8.30;99.90
11744;DHT22;5929;51.906;7.674;2023-04-24T13:10:50;8.30;99.90
11744;DHT22;5929;51.906;7.674;2023-04-24T13:13:18;8.30;99.90
11744;DHT22;5929;51.906;7.674;2023-04-24T13:15:45;8.30;99.90
11744;DHT22;5929;51.906;7.674;2023-04-24T13:18:12;8.30;99.90
11744;DHT22;5929;51.906;7.674;2023-04-24T13:20:39;8.30;99.90
11744;DHT22;5929;51.906;7.674;2023-04-24T13:23:06;8.30;99.90
11744;DHT22;5929;51.906;7.674;2023-04-24T13:25:35;8.20;99.90
11744;DHT22;5929;51.906;7.674;2023-04-24T13:28:02;8.20;99.90
11744;DHT22;5929;51.906;7.674;2023-04-24T13:30:31;8.20;99.90
11744;DHT22;5929;51.906;7.674;2023-04-24T13:32:57;8.30;99.90
11744;DHT22;5929;51.906;7.674;2023-04-24T13:35:24;8.50;99.90
11744;DHT22;5929;51.906;7.674;2023-04-24T13:37:51;8.60;99.90
11744;DHT22;5929;51.906;7.674;2023-04-24T13:40:18;8.70;99.90
11744;DHT22;5929;51.906;7.674;2023-04-24T13:42:45;8.80;99.90
11744;DHT22;5929;51.906;7.674;2023-04-24T13:45:12;8.70;99.90
11744;DHT22;5929;51.906;7.674;2023-04-24T13:47:40;8.60;99.90
11744;DHT22;5929;51.906;7.674;2023-04-24T13:50:08;8.60;99.90
11744;DHT22;5929;51.906;7.674;2023-04-24T13:52:35;8.50;99.90
11744;DHT22;5929;51.906;7.674;2023-04-24T14:21:40;9.40;99.90
11744;DHT22;5929;51.906;7.674;2023-04-24T14:24:08;9.00;99.90
11744;DHT22;5929;51.906;7.674;2023-04-24T14:26:37;8.70;99.90
11744;DHT22;5929;51.906;7.674;2023-04-24T14:29:04;8.70;99.90
11744;DHT22;5929;51.906;7.674;2023-04-24T14:31:31;8.60;99.90
11744;DHT22;5929;51.906;7.674;2023-04-24T14:33:58;8.70;99.90
11744;DHT22;5929;51.906;7.674;2023-04-24T14:36:24;8.80;99.90
11744;DHT22;5929;51.906;7.674;2023-04-24T14:38:53;9.00;99.90
11744;DHT22;5929;51.906;7.674;2023-04-24T14:41:19;8.90;99.90
11744;DHT22;5929;51.906;7.674;2023-04-24T14:43:46;9.10;99.90
11744;DHT22;5929;51.906;7.674;2023-04-24T14:46:13;9.30;99.90
11744;DHT22;5929;51.906;7.674;2023-04-24T14:48:40;9.60;99.90
11744;DHT22;5929;51.906;7.674;2023-04-24T14:51:07;9.60;99.90
11744;DHT22;5929;51.906;7.674;2023-04-24T14:53:34;9.50;99.90
11744;DHT22;5929;51.906;7.674;2023-04-24T14:56:02;9.40;99.90
11744;DHT22;5929;51.906;7.674;2023-04-24T14:58:29;9.40;99.90
11744;DHT22;5929;51.906;7.674;2023-04-24T15:00:56;9.30;99.90
11744;DHT22;5929;51.906;7.674;2023-04-24T15:07:04;9.50;99.90
11744;DHT22;5929;51.906;7.674;2023-04-24T15:09:31;9.70;99.90
11744;DHT22;5929;51.906;7.674;2023-04-24T15:11:59;9.70;99.90
11744;DHT22;5929;51.906;7.674;2023-04-24T15:14:27;9.70;99.90
11744;DHT22;5929;51.906;7.674;2023-04-24T15:16:54;9.90;99.90
11744;DHT22;5929;51.906;7.674;2023-04-24T15:19:23;10.20;99.90
11744;DHT22;5929;51.906;7.674;2023-04-24T15:21:50;10.60;99.90
11744;DHT22;5929;51.906;7.674;2023-04-24T15:24:17;10.90;99.90
11744;DHT22;5929;51.906;7.674;2023-04-24T15:26:44;11.00;99.90
11744;DHT22;5929;51.906;7.674;2023-04-24T15:29:12;11.10;99.90
11744;DHT22;5929;51.906;7.674;2023-04-24T15:31:38;10.90;99.90
11744;DHT22;5929;51.906;7.674;2023-04-24T15:34:06;10.70;99.90
11744;DHT22;5929;51.906;7.674;2023-04-24T15:36:32;10.50;99.90
11744;DHT22;5929;51.906;7.674;2023-04-24T15:39:00;10.50;99.90
11744;DHT22;5929;51.906;7.674;2023-04-24T15:41:28;10.60;99.90
11744;DHT22;5929;51.906;7.674;2023-04-24T15:43:54;10.90;99.90
11744;DHT22;5929;51.906;7.674;2023-04-24T15:46:23;10.80;99.90
11744;DHT22;5929;51.906;7.674;2023-04-24T15:48:50;10.50;99.90
11744;DHT22;5929;51.906;7.674;2023-04-24T15:51:16;10.20;99.90
11744;DHT22;5929;51.906;7.674;2023-04-24T15:53:43;10.10;99.90
11744;DHT22;5929;51.906;7.674;2023-04-24T15:56:11;10.10;99.90
11744;DHT22;5929;51.906;7.674;2023-04-24T15:58:39;10.00;99.90
11744;DHT22;5929;51.906;7.674;2023-04-24T16:01:05;10.00;99.90
11744;DHT22;5929;51.906;7.674;2023-04-24T16:03:34;10.00;99.90
11744;DHT22;5929;51.906;7.674;2023-04-24T16:06:01;10.10;99.90
11744;DHT22;5929;51.906;7.674;2023-04-24T16:08:27;10.30;99.90
11744;DHT22;5929;51.906;7.674;2023-04-24T16:10:54;10.40;99.90
11744;DHT22;5929;51.906;7.674;2023-04-24T16:13:21;10.60;99.90
11744;DHT22;5929;51.906;7.674;2023-04-24T16:15:48;10.60;99.90
11744;DHT22;5929;51.906;7.674;2023-04-24T16:18:16;10.60;99.90
11744;DHT22;5929;51.906;7.674;2023-04-24T16:20:45;10.80;99.90
11744;DHT22;5929;51.906;7.674;2023-04-24T16:23:12;10.70;99.90
11744;DHT22;5929;51.906;7.674;2023-04-24T16:25:40;10.80;99.90
11744;DHT22;5929;51.906;7.674;2023-04-24T16:28:09;11.00;99.90
11744;DHT22;5929;51.906;7.674;2023-04-24T16:30:36;11.10;99.90